sensor_id;sensor_type;location;lat;lon;timestamp;temperature;humidity
8593;DHT22;4334;49.982;8.398;2023-05-07T00:02:15;16.40;99.90
8593;DHT22;4334;49.982;8.398;2023-05-07T00:04:41;16.30;99.90
8593;DHT22;4334;49.982;8.398;2023-05-07T00:07:09;16.30;99.90
8593;DHT22;4334;49.982;8.398;2023-05-07T00:09:36;16.30;99.90
8593;DHT22;4334;49.982;8.398;2023-05-07T00:12:03;16.20;99.90
8593;DHT22;4334;49.982;8.398;2023-05-07T00:14:31;16.20;99.90
8593;DHT22;4334;49.982;8.398;2023-05-07T00:16:57;16.20;99.90
8593;DHT22;4334;49.982;8.398;2023-05-07T00:19:25;16.20;99.90
8593;DHT22;4334;49.982;8.398;2023-05-07T00:21:52;16.20;99.90
8593;DHT22;4334;49.982;8.398;2023-05-07T00:24:19;16.20;99.90
8593;DHT22;4334;49.982;8.398;2023-05-07T00:26:46;16.20;99.90
8593;DHT22;4334;49.982;8.398;2023-05-07T00:29:13;16.20;99.90
8593;DHT22;4334;49.982;8.398;2023-05-07T00:31:40;16.20;99.90
8593;DHT22;4334;49.982;8.398;2023-05-07T00:34:06;16.30;99.90
8593;DHT22;4334;49.982;8.398;2023-05-07T00:36:34;16.30;99.90
8593;DHT22;4334;49.982;8.398;2023-05-07T00:39:01;16.30;99.90
8593;DHT22;4334;49.982;8.398;2023-05-07T00:41:29;16.20;99.90
8593;DHT22;4334;49.982;8.398;2023-05-07T00:43:56;16.20;99.90
8593;DHT22;4334;49.982;8.398;2023-05-07T00:46:23;16.20;99.90
8593;DHT22;4334;49.982;8.398;2023-05-07T00:48:50;16.20;99.90
8593;DHT22;4334;49.982;8.398;2023-05-07T00:51:17;16.20;99.90
8593;DHT22;4334;49.982;8.398;2023-05-07T00:53:46;16.20;99.90
8593;DHT22;4334;49.982;8.398;2023-05-07T00:56:13;16.10;99.90
8593;DHT22;4334;49.982;8.398;2023-05-07T00:58:41;16.10;99.90
8593;DHT22;4334;49.982;8.398;2023-05-07T01:01:07;16.90;99.90
8593;DHT22;4334;49.982;8.398;2023-05-07T01:03:34;17.00;99.90
8593;DHT22;4334;49.982;8.398;2023-05-07T01:06:02;16.20;99.90
8593;DHT22;4334;49.982;8.398;2023-05-07T01:08:30;16.20;99.90
8593;DHT22;4334;49.982;8.398;2023-05-07T01:11:00;18.40;99.90
8593;DHT22;4334;49.982;8.398;2023-05-07T01:13:27;16.20;99.90
8593;DHT22;4334;49.982;8.398;2023-05-07T01:15:54;16.20;99.90
8593;DHT22;4334;49.982;8.398;2023-05-07T01:18:21;16.20;99.90
8593;DHT22;4334;49.982;8.398;2023-05-07T01:20:48;20.20;99.90
8593;DHT22;4334;49.982;8.398;2023-05-07T01:23:17;16.20;99.90
8593;DHT22;4334;49.982;8.398;2023-05-07T01:25:51;16.10;99.90
8593;DHT22;4334;49.982;8.398;2023-05-07T01:28:18;16.10;99.90
8593;DHT22;4334;49.982;8.398;2023-05-07T01:30:46;16.10;99.90
8593;DHT22;4334;49.982;8.398;2023-05-07T01:33:16;16.00;99.90
8593;DHT22;4334;49.982;8.398;2023-05-07T01:35:47;16.00;99.90
8593;DHT22;4334;49.982;8.398;2023-05-07T01:38:17;16.00;99.90
8593;DHT22;4334;49.982;8.398;2023-05-07T01:40:45;16.00;99.90
8593;DHT22;4334;49.982;8.398;2023-05-07T01:43:12;15.90;99.90
8593;DHT22;4334;49.982;8.398;2023-05-07T01:45:39;15.90;99.90
8593;DHT22;4334;49.982;8.398;2023-05-07T01:48:07;15.80;99.90
8593;DHT22;4334;49.982;8.398;2023-05-07T01:50:35;19.50;99.90
8593;DHT22;4334;49.982;8.398;2023-05-07T01:53:03;15.90;99.90
8593;DHT22;4334;49.982;8.398;2023-05-07T01:55:31;15.90;99.90
8593;DHT22;4334;49.982;8.398;2023-05-07T01:57:57;16.00;99.90
8593;DHT22;4334;49.982;8.398;2023-05-07T02:00:24;16.00;99.90
8593;DHT22;4334;49.982;8.398;2023-05-07T02:02:51;19.40;99.90
8593;DHT22;4334;49.982;8.398;2023-05-07T02:05:18;16.00;99.90
8593;DHT22;4334;49.982;8.398;2023-05-07T02:07:45;16.00;99.90
8593;DHT22;4334;49.982;8.398;2023-05-07T02:10:11;16.20;99.90
8593;DHT22;4334;49.982;8.398;2023-05-07T02:12:39;16.10;99.90
8593;DHT22;4334;49.982;8.398;2023-05-07T02:15:07;16.00;99.90
8593;DHT22;4334;49.982;8.398;2023-05-07T02:17:34;16.10;99.90
8593;DHT22;4334;49.982;8.398;2023-05-07T02:20:03;16.20;99.90
8593;DHT22;4334;49.982;8.398;2023-05-07T02:22:30;16.20;99.90
8593;DHT22;4334;49.982;8.398;2023-05-07T02:24:57;16.20;99.90
8593;DHT22;4334;49.982;8.398;2023-05-07T02:27:23;16.20;99.90
8593;DHT22;4334;49.982;8.398;2023-05-07T02:29:51;16.20;99.90
8593;DHT22;4334;49.982;8.398;2023-05-07T02:32:18;16.60;99.90
8593;DHT22;4334;49.982;8.398;2023-05-07T02:34:45;16.20;99.90
8593;DHT22;4334;49.982;8.398;2023-05-07T02:37:12;16.90;99.90
8593;DHT22;4334;49.982;8.398;2023-05-07T02:39:38;16.20;99.90
8593;DHT22;4334;49.982;8.398;2023-05-07T02:42:05;17.80;99.90
8593;DHT22;4334;49.982;8.398;2023-05-07T02:44:32;16.20;99.90
8593;DHT22;4334;49.982;8.398;2023-05-07T02:47:00;16.10;99.90
8593;DHT22;4334;49.982;8.398;2023-05-07T02:49:26;16.10;99.90
8593;DHT22;4334;49.982;8.398;2023-05-07T02:51:53;16.10;99.90
8593;DHT22;4334;49.982;8.398;2023-05-07T02:54:20;16.20;99.90
8593;DHT22;4334;49.982;8.398;2023-05-07T02:56:47;16.90;99.90
8593;DHT22;4334;49.982;8.398;2023-05-07T03:01:41;16.20;99.90
8593;DHT22;4334;49.982;8.398;2023-05-07T03:04:10;16.20;99.90
8593;DHT22;4334;49.982;8.398;2023-05-07T03:06:37;16.20;99.90
8593;DHT22;4334;49.982;8.398;2023-05-07T03:09:03;16.20;99.90
8593;DHT22;4334;49.982;8.398;2023-05-07T03:11:30;16.20;99.90
8593;DHT22;4334;49.982;8.398;2023-05-07T03:16:24;16.20;99.90
8593;DHT22;4334;49.982;8.398;2023-05-07T03:18:51;16.20;99.90
8593;DHT22;4334;49.982;8.398;2023-05-07T03:21:19;16.20;99.90
8593;DHT22;4334;49.982;8.398;2023-05-07T03:23:45;16.30;99.90
8593;DHT22;4334;49.982;8.398;2023-05-07T03:26:12;16.20;99.90
8593;DHT22;4334;49.982;8.398;2023-05-07T03:28:39;16.20;99.90
8593;DHT22;4334;49.982;8.398;2023-05-07T03:31:06;16.20;99.90
8593;DHT22;4334;49.982;8.398;2023-05-07T03:33:33;16.20;99.90
8593;DHT22;4334;49.982;8.398;2023-05-07T03:36:00;16.20;99.90
8593;DHT22;4334;49.982;8.398;2023-05-07T03:38:28;16.10;99.90
8593;DHT22;4334;49.982;8.398;2023-05-07T03:40:55;16.20;99.90
8593;DHT22;4334;49.982;8.398;2023-05-07T03:45:49;16.10;99.90
8593;DHT22;4334;49.982;8.398;2023-05-07T03:48:15;16.10;99.90
8593;DHT22;4334;49.982;8.398;2023-05-07T03:50:42;16.10;99.90
8593;DHT22;4334;49.982;8.398;2023-05-07T03:53:09;16.10;99.90
8593;DHT22;4334;49.982;8.398;2023-05-07T03:55:37;16.10;99.90
8593;DHT22;4334;49.982;8.398;2023-05-07T03:58:04;16.00;99.90
8593;DHT22;4334;49.982;8.398;2023-05-07T04:00:31;16.00;99.90
8593;DHT22;4334;49.982;8.398;2023-05-07T04:05:26;16.00;99.90
8593;DHT22;4334;49.982;8.398;2023-05-07T04:07:53;16.00;99.90
8593;DHT22;4334;49.982;8.398;2023-05-07T04:15:15;16.00;99.90
8593;DHT22;4334;49.982;8.398;2023-05-07T04:17:42;16.00;99.90
8593;DHT22;4334;49.982;8.398;2023-05-07T04:20:10;16.10;99.90
8593;DHT22;4334;49.982;8.398;2023-05-07T04:22:37;16.10;99.90
8593;DHT22;4334;49.982;8.398;2023-05-07T04:25:04;16.00;99.90
8593;DHT22;4334;49.982;8.398;2023-05-07T04:27:31;16.10;99.90
8593;DHT22;4334;49.982;8.398;2023-05-07T04:30:00;16.10;99.90
8593;DHT22;4334;49.982;8.398;2023-05-07T04:32:28;16.10;99.90
8593;DHT22;4334;49.982;8.398;2023-05-07T04:34:55;16.00;99.90
8593;DHT22;4334;49.982;8.398;2023-05-07T04:37:22;16.00;99.90
8593;DHT22;4334;49.982;8.398;2023-05-07T04:39:49;16.10;99.90
8593;DHT22;4334;49.982;8.398;2023-05-07T04:42:16;16.00;99.90
8593;DHT22;4334;49.982;8.398;2023-05-07T04:44:44;16.10;99.90
8593;DHT22;4334;49.982;8.398;2023-05-07T04:47:12;18.40;99.90
8593;DHT22;4334;49.982;8.398;2023-05-07T04:49:39;15.90;99.90
8593;DHT22;4334;49.982;8.398;2023-05-07T04:54:33;16.10;99.90
8593;DHT22;4334;49.982;8.398;2023-05-07T04:57:00;16.10;99.90
8593;DHT22;4334;49.982;8.398;2023-05-07T04:59:27;16.60;99.90
8593;DHT22;4334;49.982;8.398;2023-05-07T05:01:54;16.20;99.90
8593;DHT22;4334;49.982;8.398;2023-05-07T05:04:22;16.20;99.90
8593;DHT22;4334;49.982;8.398;2023-05-07T05:06:48;16.30;99.90
8593;DHT22;4334;49.982;8.398;2023-05-07T05:09:15;16.30;99.90
8593;DHT22;4334;49.982;8.398;2023-05-07T05:11:42;16.40;99.90
8593;DHT22;4334;49.982;8.398;2023-05-07T05:14:09;16.40;99.90
8593;DHT22;4334;49.982;8.398;2023-05-07T05:16:35;16.40;99.90
8593;DHT22;4334;49.982;8.398;2023-05-07T05:19:02;16.50;99.90
8593;DHT22;4334;49.982;8.398;2023-05-07T05:21:31;16.50;99.90
8593;DHT22;4334;49.982;8.398;2023-05-07T05:23:58;16.60;99.90
8593;DHT22;4334;49.982;8.398;2023-05-07T05:26:25;16.60;99.90
8593;DHT22;4334;49.982;8.398;2023-05-07T05:28:52;16.60;99.90
8593;DHT22;4334;49.982;8.398;2023-05-07T05:31:18;16.70;99.90
8593;DHT22;4334;49.982;8.398;2023-05-07T05:33:45;16.70;99.90
8593;DHT22;4334;49.982;8.398;2023-05-07T05:36:12;16.70;99.90
8593;DHT22;4334;49.982;8.398;2023-05-07T05:38:40;16.70;99.90
8593;DHT22;4334;49.982;8.398;2023-05-07T05:41:07;16.80;99.90
8593;DHT22;4334;49.982;8.398;2023-05-07T05:43:33;16.90;99.90
8593;DHT22;4334;49.982;8.398;2023-05-07T05:46:00;16.90;99.90
8593;DHT22;4334;49.982;8.398;2023-05-07T05:48:29;16.90;99.90
8593;DHT22;4334;49.982;8.398;2023-05-07T05:50:55;16.90;99.90
8593;DHT22;4334;49.982;8.398;2023-05-07T05:53:22;16.90;99.90
8593;DHT22;4334;49.982;8.398;2023-05-07T05:55:50;17.10;99.90
8593;DHT22;4334;49.982;8.398;2023-05-07T05:58:17;17.40;99.90
8593;DHT22;4334;49.982;8.398;2023-05-07T06:00:44;17.50;99.90
8593;DHT22;4334;49.982;8.398;2023-05-07T06:03:11;17.70;99.90
8593;DHT22;4334;49.982;8.398;2023-05-07T06:05:37;22.00;99.90
8593;DHT22;4334;49.982;8.398;2023-05-07T06:08:04;18.10;99.90
8593;DHT22;4334;49.982;8.398;2023-05-07T06:10:31;18.20;99.90
8593;DHT22;4334;49.982;8.398;2023-05-07T06:12:59;18.30;99.90
8593;DHT22;4334;49.982;8.398;2023-05-07T06:15:26;18.30;99.90
8593;DHT22;4334;49.982;8.398;2023-05-07T06:17:52;18.20;99.90
8593;DHT22;4334;49.982;8.398;2023-05-07T06:20:21;18.50;99.90
8593;DHT22;4334;49.982;8.398;2023-05-07T06:22:48;18.60;99.90
8593;DHT22;4334;49.982;8.398;2023-05-07T06:25:14;18.60;99.90
8593;DHT22;4334;49.982;8.398;2023-05-07T06:27:41;18.60;99.90
8593;DHT22;4334;49.982;8.398;2023-05-07T06:30:10;19.10;99.90
8593;DHT22;4334;49.982;8.398;2023-05-07T06:32:36;19.10;99.90
8593;DHT22;4334;49.982;8.398;2023-05-07T06:35:04;19.20;99.90
8593;DHT22;4334;49.982;8.398;2023-05-07T06:37:31;19.20;99.90
8593;DHT22;4334;49.982;8.398;2023-05-07T06:39:57;18.90;99.90
8593;DHT22;4334;49.982;8.398;2023-05-07T06:42:24;18.40;99.90
8593;DHT22;4334;49.982;8.398;2023-05-07T06:44:51;18.70;99.90
8593;DHT22;4334;49.982;8.398;2023-05-07T06:47:19;18.70;99.90
8593;DHT22;4334;49.982;8.398;2023-05-07T06:49:46;22.50;99.90
8593;DHT22;4334;49.982;8.398;2023-05-07T06:52:13;19.10;99.90
8593;DHT22;4334;49.982;8.398;2023-05-07T06:54:39;18.90;99.90
8593;DHT22;4334;49.982;8.398;2023-05-07T06:57:06;18.90;99.90
8593;DHT22;4334;49.982;8.398;2023-05-07T06:59:33;18.70;99.90
8593;DHT22;4334;49.982;8.398;2023-05-07T07:02:00;18.70;99.90
8593;DHT22;4334;49.982;8.398;2023-05-07T07:04:28;18.70;99.90
8593;DHT22;4334;49.982;8.398;2023-05-07T07:06:56;18.70;99.90
8593;DHT22;4334;49.982;8.398;2023-05-07T07:09:23;18.50;99.90
8593;DHT22;4334;49.982;8.398;2023-05-07T07:11:50;18.40;99.90
8593;DHT22;4334;49.982;8.398;2023-05-07T07:14:16;18.40;99.90
8593;DHT22;4334;49.982;8.398;2023-05-07T07:16:43;18.40;99.90
8593;DHT22;4334;49.982;8.398;2023-05-07T07:19:10;18.20;99.90
8593;DHT22;4334;49.982;8.398;2023-05-07T07:21:38;18.30;99.90
8593;DHT22;4334;49.982;8.398;2023-05-07T07:24:05;18.30;99.90
8593;DHT22;4334;49.982;8.398;2023-05-07T07:26:31;18.40;99.90
8593;DHT22;4334;49.982;8.398;2023-05-07T07:28:58;18.50;99.90
8593;DHT22;4334;49.982;8.398;2023-05-07T07:31:25;18.40;99.90
8593;DHT22;4334;49.982;8.398;2023-05-07T07:33:52;18.40;99.90
8593;DHT22;4334;49.982;8.398;2023-05-07T07:36:18;18.50;99.90
8593;DHT22;4334;49.982;8.398;2023-05-07T07:38:46;18.50;99.90
8593;DHT22;4334;49.982;8.398;2023-05-07T07:41:13;18.40;99.90
8593;DHT22;4334;49.982;8.398;2023-05-07T07:43:40;18.30;99.90
8593;DHT22;4334;49.982;8.398;2023-05-07T07:46:06;18.30;99.90
8593;DHT22;4334;49.982;8.398;2023-05-07T07:48:33;18.40;99.90
8593;DHT22;4334;49.982;8.398;2023-05-07T07:51:00;18.60;99.90
8593;DHT22;4334;49.982;8.398;2023-05-07T07:53:26;18.40;99.90
8593;DHT22;4334;49.982;8.398;2023-05-07T07:55:54;18.40;99.90
8593;DHT22;4334;49.982;8.398;2023-05-07T07:58:21;18.30;99.90
8593;DHT22;4334;49.982;8.398;2023-05-07T08:00:50;18.40;99.90
8593;DHT22;4334;49.982;8.398;2023-05-07T08:03:16;18.50;99.90
8593;DHT22;4334;49.982;8.398;2023-05-07T08:05:45;18.70;99.90
8593;DHT22;4334;49.982;8.398;2023-05-07T08:08:12;18.80;99.90
8593;DHT22;4334;49.982;8.398;2023-05-07T08:10:38;19.00;99.90
8593;DHT22;4334;49.982;8.398;2023-05-07T08:13:06;19.50;99.90
8593;DHT22;4334;49.982;8.398;2023-05-07T08:15:33;19.00;99.90
8593;DHT22;4334;49.982;8.398;2023-05-07T08:18:01;19.00;99.90
8593;DHT22;4334;49.982;8.398;2023-05-07T08:20:28;19.10;99.90
8593;DHT22;4334;49.982;8.398;2023-05-07T08:22:55;19.20;99.90
8593;DHT22;4334;49.982;8.398;2023-05-07T08:25:21;19.50;99.90
8593;DHT22;4334;49.982;8.398;2023-05-07T08:27:48;19.40;99.90
8593;DHT22;4334;49.982;8.398;2023-05-07T08:30:16;19.40;99.90
8593;DHT22;4334;49.982;8.398;2023-05-07T08:32:43;19.40;99.90
8593;DHT22;4334;49.982;8.398;2023-05-07T08:35:10;19.50;99.90
8593;DHT22;4334;49.982;8.398;2023-05-07T08:37:37;22.30;99.90
8593;DHT22;4334;49.982;8.398;2023-05-07T08:40:04;19.70;99.90
8593;DHT22;4334;49.982;8.398;2023-05-07T08:42:35;19.80;99.90
8593;DHT22;4334;49.982;8.398;2023-05-07T08:45:03;20.00;99.90
8593;DHT22;4334;49.982;8.398;2023-05-07T08:47:40;20.40;99.90
8593;DHT22;4334;49.982;8.398;2023-05-07T08:50:07;20.60;99.90
8593;DHT22;4334;49.982;8.398;2023-05-07T08:52:35;20.70;99.90
8593;DHT22;4334;49.982;8.398;2023-05-07T08:55:03;20.90;99.90
8593;DHT22;4334;49.982;8.398;2023-05-07T08:57:29;21.00;99.90
8593;DHT22;4334;49.982;8.398;2023-05-07T08:59:57;21.10;99.90
8593;DHT22;4334;49.982;8.398;2023-05-07T09:02:23;21.30;99.90
8593;DHT22;4334;49.982;8.398;2023-05-07T09:04:51;21.40;99.90
8593;DHT22;4334;49.982;8.398;2023-05-07T09:07:19;21.70;99.90
8593;DHT22;4334;49.982;8.398;2023-05-07T09:09:46;21.80;99.90
8593;DHT22;4334;49.982;8.398;2023-05-07T09:12:13;21.70;99.90
8593;DHT22;4334;49.982;8.398;2023-05-07T09:14:39;21.70;99.90
8593;DHT22;4334;49.982;8.398;2023-05-07T09:17:06;21.70;99.90
8593;DHT22;4334;49.982;8.398;2023-05-07T09:19:33;22.20;99.90
8593;DHT22;4334;49.982;8.398;2023-05-07T09:22:02;22.50;99.90
8593;DHT22;4334;49.982;8.398;2023-05-07T09:24:30;22.40;99.90
8593;DHT22;4334;49.982;8.398;2023-05-07T09:27:00;22.70;99.90
8593;DHT22;4334;49.982;8.398;2023-05-07T09:29:27;22.80;99.90
8593;DHT22;4334;49.982;8.398;2023-05-07T09:31:55;23.50;99.90
8593;DHT22;4334;49.982;8.398;2023-05-07T09:34:22;24.00;99.90
8593;DHT22;4334;49.982;8.398;2023-05-07T09:36:49;24.40;99.90
8593;DHT22;4334;49.982;8.398;2023-05-07T09:39:17;24.90;99.90
8593;DHT22;4334;49.982;8.398;2023-05-07T09:41:44;29.30;99.90
8593;DHT22;4334;49.982;8.398;2023-05-07T09:44:11;23.90;99.90
8593;DHT22;4334;49.982;8.398;2023-05-07T09:46:39;24.40;99.90
8593;DHT22;4334;49.982;8.398;2023-05-07T09:49:15;24.30;99.90
8593;DHT22;4334;49.982;8.398;2023-05-07T09:51:48;25.70;99.90
8593;DHT22;4334;49.982;8.398;2023-05-07T09:54:15;25.40;99.90
8593;DHT22;4334;49.982;8.398;2023-05-07T09:56:44;23.00;99.90
8593;DHT22;4334;49.982;8.398;2023-05-07T09:59:13;23.70;99.90
8593;DHT22;4334;49.982;8.398;2023-05-07T10:01:41;24.00;99.90
8593;DHT22;4334;49.982;8.398;2023-05-07T10:04:09;23.90;99.90
8593;DHT22;4334;49.982;8.398;2023-05-07T10:06:37;28.70;99.90
8593;DHT22;4334;49.982;8.398;2023-05-07T10:09:04;23.70;99.90
8593;DHT22;4334;49.982;8.398;2023-05-07T10:11:32;23.40;99.90
8593;DHT22;4334;49.982;8.398;2023-05-07T10:14:01;23.00;99.90
8593;DHT22;4334;49.982;8.398;2023-05-07T10:16:31;23.00;99.90
8593;DHT22;4334;49.982;8.398;2023-05-07T10:18:58;23.00;99.90
8593;DHT22;4334;49.982;8.398;2023-05-07T10:21:27;23.10;99.90
8593;DHT22;4334;49.982;8.398;2023-05-07T10:23:58;23.00;99.90
8593;DHT22;4334;49.982;8.398;2023-05-07T10:26:27;23.60;99.90
8593;DHT22;4334;49.982;8.398;2023-05-07T10:28:59;24.10;99.90
8593;DHT22;4334;49.982;8.398;2023-05-07T10:31:43;24.60;99.90
8593;DHT22;4334;49.982;8.398;2023-05-07T10:34:16;25.80;99.90
8593;DHT22;4334;49.982;8.398;2023-05-07T10:36:44;25.60;99.90
8593;DHT22;4334;49.982;8.398;2023-05-07T10:39:11;28.30;99.90
8593;DHT22;4334;49.982;8.398;2023-05-07T10:41:39;25.10;99.90
8593;DHT22;4334;49.982;8.398;2023-05-07T10:44:06;25.10;99.90
8593;DHT22;4334;49.982;8.398;2023-05-07T10:46:34;25.30;99.90
8593;DHT22;4334;49.982;8.398;2023-05-07T10:49:08;25.80;99.90
8593;DHT22;4334;49.982;8.398;2023-05-07T10:51:37;25.30;99.90
8593;DHT22;4334;49.982;8.398;2023-05-07T10:54:20;29.20;99.90
8593;DHT22;4334;49.982;8.398;2023-05-07T10:56:47;26.80;99.30
8593;DHT22;4334;49.982;8.398;2023-05-07T10:59:35;26.30;99.90
8593;DHT22;4334;49.982;8.398;2023-05-07T11:02:09;26.80;99.00
8593;DHT22;4334;49.982;8.398;2023-05-07T11:04:37;26.70;99.30
8593;DHT22;4334;49.982;8.398;2023-05-07T11:07:28;28.70;99.90
8593;DHT22;4334;49.982;8.398;2023-05-07T11:10:00;27.10;98.00
8593;DHT22;4334;49.982;8.398;2023-05-07T11:12:49;26.60;98.70
8593;DHT22;4334;49.982;8.398;2023-05-07T11:15:37;26.70;98.20
8593;DHT22;4334;49.982;8.398;2023-05-07T11:18:05;25.70;99.60
8593;DHT22;4334;49.982;8.398;2023-05-07T11:20:59;25.70;99.80
8593;DHT22;4334;49.982;8.398;2023-05-07T11:26:44;26.80;98.10
8593;DHT22;4334;49.982;8.398;2023-05-07T11:29:13;27.20;97.70
8593;DHT22;4334;49.982;8.398;2023-05-07T11:31:40;31.80;96.80
8593;DHT22;4334;49.982;8.398;2023-05-07T11:34:09;28.10;95.50
8593;DHT22;4334;49.982;8.398;2023-05-07T11:36:37;28.50;95.00
8593;DHT22;4334;49.982;8.398;2023-05-07T11:39:23;27.90;95.00
8593;DHT22;4334;49.982;8.398;2023-05-07T11:41:50;32.00;96.60
8593;DHT22;4334;49.982;8.398;2023-05-07T11:44:16;27.30;95.60
8593;DHT22;4334;49.982;8.398;2023-05-07T11:46:43;27.20;95.50
8593;DHT22;4334;49.982;8.398;2023-05-07T11:49:12;29.40;95.60
8593;DHT22;4334;49.982;8.398;2023-05-07T11:51:39;26.80;94.70
8593;DHT22;4334;49.982;8.398;2023-05-07T11:54:06;26.10;95.10
8593;DHT22;4334;49.982;8.398;2023-05-07T11:56:37;26.40;94.60
8593;DHT22;4334;49.982;8.398;2023-05-07T11:59:04;27.20;93.90
8593;DHT22;4334;49.982;8.398;2023-05-07T12:01:31;27.30;94.10
8593;DHT22;4334;49.982;8.398;2023-05-07T12:03:57;27.70;93.30
8593;DHT22;4334;49.982;8.398;2023-05-07T12:06:25;27.50;92.20
8593;DHT22;4334;49.982;8.398;2023-05-07T12:08:53;27.40;92.40
8593;DHT22;4334;49.982;8.398;2023-05-07T12:11:23;27.50;90.50
8593;DHT22;4334;49.982;8.398;2023-05-07T12:13:50;27.50;90.80
8593;DHT22;4334;49.982;8.398;2023-05-07T12:16:17;27.80;90.80
8593;DHT22;4334;49.982;8.398;2023-05-07T12:18:45;27.70;90.70
8593;DHT22;4334;49.982;8.398;2023-05-07T12:21:12;27.60;91.00
8593;DHT22;4334;49.982;8.398;2023-05-07T12:23:41;27.00;91.80
8593;DHT22;4334;49.982;8.398;2023-05-07T12:26:08;27.30;91.80
8593;DHT22;4334;49.982;8.398;2023-05-07T12:28:39;26.60;92.50
8593;DHT22;4334;49.982;8.398;2023-05-07T12:31:06;24.90;91.20
8593;DHT22;4334;49.982;8.398;2023-05-07T12:33:33;27.00;92.40
8593;DHT22;4334;49.982;8.398;2023-05-07T12:36:04;26.80;91.40
8593;DHT22;4334;49.982;8.398;2023-05-07T12:38:35;26.10;91.60
8593;DHT22;4334;49.982;8.398;2023-05-07T12:41:04;26.00;91.70
8593;DHT22;4334;49.982;8.398;2023-05-07T12:43:31;26.50;91.60
8593;DHT22;4334;49.982;8.398;2023-05-07T12:46:00;26.70;91.10
8593;DHT22;4334;49.982;8.398;2023-05-07T12:48:27;27.10;90.90
8593;DHT22;4334;49.982;8.398;2023-05-07T12:50:55;26.60;90.70
8593;DHT22;4334;49.982;8.398;2023-05-07T12:53:24;29.20;92.90
8593;DHT22;4334;49.982;8.398;2023-05-07T12:55:52;25.60;92.20
8593;DHT22;4334;49.982;8.398;2023-05-07T12:58:25;25.70;92.50
8593;DHT22;4334;49.982;8.398;2023-05-07T13:00:53;26.50;91.40
8593;DHT22;4334;49.982;8.398;2023-05-07T13:03:25;26.60;90.90
8593;DHT22;4334;49.982;8.398;2023-05-07T13:05:52;26.70;90.50
8593;DHT22;4334;49.982;8.398;2023-05-07T13:08:26;26.70;86.70
8593;DHT22;4334;49.982;8.398;2023-05-07T13:10:54;27.20;84.50
8593;DHT22;4334;49.982;8.398;2023-05-07T13:13:22;27.10;87.10
8593;DHT22;4334;49.982;8.398;2023-05-07T13:15:49;26.60;86.00
8593;DHT22;4334;49.982;8.398;2023-05-07T13:18:15;26.80;85.30
8593;DHT22;4334;49.982;8.398;2023-05-07T13:20:42;26.80;84.30
8593;DHT22;4334;49.982;8.398;2023-05-07T13:23:09;26.80;86.40
8593;DHT22;4334;49.982;8.398;2023-05-07T13:25:35;26.60;88.80
8593;DHT22;4334;49.982;8.398;2023-05-07T13:28:02;26.60;88.00
8593;DHT22;4334;49.982;8.398;2023-05-07T13:30:31;26.50;85.60
8593;DHT22;4334;49.982;8.398;2023-05-07T13:32:58;26.90;83.40
8593;DHT22;4334;49.982;8.398;2023-05-07T13:35:25;26.80;83.10
8593;DHT22;4334;49.982;8.398;2023-05-07T13:37:52;26.80;85.10
8593;DHT22;4334;49.982;8.398;2023-05-07T13:40:20;27.00;84.50
8593;DHT22;4334;49.982;8.398;2023-05-07T13:42:47;27.40;84.40
8593;DHT22;4334;49.982;8.398;2023-05-07T13:45:14;27.30;82.70
8593;DHT22;4334;49.982;8.398;2023-05-07T13:47:42;27.20;83.70
8593;DHT22;4334;49.982;8.398;2023-05-07T13:50:09;27.60;83.70
8593;DHT22;4334;49.982;8.398;2023-05-07T13:52:39;27.30;82.60
8593;DHT22;4334;49.982;8.398;2023-05-07T13:55:07;32.00;85.10
8593;DHT22;4334;49.982;8.398;2023-05-07T13:57:33;28.60;81.20
8593;DHT22;4334;49.982;8.398;2023-05-07T14:00:00;28.60;81.80
8593;DHT22;4334;49.982;8.398;2023-05-07T14:02:27;28.40;82.80
8593;DHT22;4334;49.982;8.398;2023-05-07T14:04:55;28.40;83.90
8593;DHT22;4334;49.982;8.398;2023-05-07T14:07:22;28.20;84.30
8593;DHT22;4334;49.982;8.398;2023-05-07T14:09:49;27.20;84.30
8593;DHT22;4334;49.982;8.398;2023-05-07T14:12:15;27.40;79.70
8593;DHT22;4334;49.982;8.398;2023-05-07T14:14:42;27.40;82.10
8593;DHT22;4334;49.982;8.398;2023-05-07T14:17:09;27.00;82.70
8593;DHT22;4334;49.982;8.398;2023-05-07T14:19:35;26.90;82.60
8593;DHT22;4334;49.982;8.398;2023-05-07T14:22:03;27.00;83.60
8593;DHT22;4334;49.982;8.398;2023-05-07T14:24:30;26.40;83.20
8593;DHT22;4334;49.982;8.398;2023-05-07T14:26:57;27.10;82.00
8593;DHT22;4334;49.982;8.398;2023-05-07T14:29:23;30.30;84.90
8593;DHT22;4334;49.982;8.398;2023-05-07T14:31:50;27.10;83.10
8593;DHT22;4334;49.982;8.398;2023-05-07T14:34:17;27.30;84.00
8593;DHT22;4334;49.982;8.398;2023-05-07T14:36:43;27.20;85.20
8593;DHT22;4334;49.982;8.398;2023-05-07T14:39:11;26.90;85.70
8593;DHT22;4334;49.982;8.398;2023-05-07T14:41:38;26.70;86.70
8593;DHT22;4334;49.982;8.398;2023-05-07T14:44:05;29.60;89.80
8593;DHT22;4334;49.982;8.398;2023-05-07T14:46:32;26.10;88.30
8593;DHT22;4334;49.982;8.398;2023-05-07T14:48:58;25.60;88.30
8593;DHT22;4334;49.982;8.398;2023-05-07T14:51:25;28.60;90.30
8593;DHT22;4334;49.982;8.398;2023-05-07T14:53:53;25.60;88.10
8593;DHT22;4334;49.982;8.398;2023-05-07T14:56:22;25.50;91.00
8593;DHT22;4334;49.982;8.398;2023-05-07T14:58:48;25.10;92.20
8593;DHT22;4334;49.982;8.398;2023-05-07T15:01:15;24.80;92.50
8593;DHT22;4334;49.982;8.398;2023-05-07T15:03:42;24.40;93.50
8593;DHT22;4334;49.982;8.398;2023-05-07T15:06:09;24.40;93.80
8593;DHT22;4334;49.982;8.398;2023-05-07T15:08:35;24.40;93.50
8593;DHT22;4334;49.982;8.398;2023-05-07T15:11:02;24.50;93.80
8593;DHT22;4334;49.982;8.398;2023-05-07T15:13:30;24.60;94.00
8593;DHT22;4334;49.982;8.398;2023-05-07T15:15:57;28.40;95.50
8593;DHT22;4334;49.982;8.398;2023-05-07T15:18:23;24.30;94.30
8593;DHT22;4334;49.982;8.398;2023-05-07T15:20:50;24.30;94.60
8593;DHT22;4334;49.982;8.398;2023-05-07T15:23:17;24.20;94.80
8593;DHT22;4334;49.982;8.398;2023-05-07T15:25:44;24.00;95.10
8593;DHT22;4334;49.982;8.398;2023-05-07T15:28:10;24.00;95.00
8593;DHT22;4334;49.982;8.398;2023-05-07T15:30:38;24.00;95.30
8593;DHT22;4334;49.982;8.398;2023-05-07T15:33:05;21.70;94.70
8593;DHT22;4334;49.982;8.398;2023-05-07T15:37:59;23.80;95.50
8593;DHT22;4334;49.982;8.398;2023-05-07T15:40:28;24.00;96.00
8593;DHT22;4334;49.982;8.398;2023-05-07T15:42:56;24.00;95.80
8593;DHT22;4334;49.982;8.398;2023-05-07T15:45:23;24.10;95.60
8593;DHT22;4334;49.982;8.398;2023-05-07T15:47:51;24.10;95.50
8593;DHT22;4334;49.982;8.398;2023-05-07T15:50:18;24.00;95.90
8593;DHT22;4334;49.982;8.398;2023-05-07T15:52:44;24.00;95.30
8593;DHT22;4334;49.982;8.398;2023-05-07T15:55:12;23.90;95.20
8593;DHT22;4334;49.982;8.398;2023-05-07T16:00:07;23.90;95.40
8593;DHT22;4334;49.982;8.398;2023-05-07T16:02:37;23.90;95.80
8593;DHT22;4334;49.982;8.398;2023-05-07T16:05:06;23.80;95.50
8593;DHT22;4334;49.982;8.398;2023-05-07T16:07:35;23.80;95.40
8593;DHT22;4334;49.982;8.398;2023-05-07T16:10:03;23.60;95.20
8593;DHT22;4334;49.982;8.398;2023-05-07T16:12:30;23.60;95.60
8593;DHT22;4334;49.982;8.398;2023-05-07T16:14:57;23.40;95.70
8593;DHT22;4334;49.982;8.398;2023-05-07T16:17:24;23.30;94.80
8593;DHT22;4334;49.982;8.398;2023-05-07T16:19:50;22.10;99.90
8593;DHT22;4334;49.982;8.398;2023-05-07T16:22:19;20.90;99.90
8593;DHT22;4334;49.982;8.398;2023-05-07T16:32:07;19.60;99.90
8593;DHT22;4334;49.982;8.398;2023-05-07T16:34:34;19.30;99.90
8593;DHT22;4334;49.982;8.398;2023-05-07T16:37:02;19.00;99.90
8593;DHT22;4334;49.982;8.398;2023-05-07T16:39:30;18.70;99.90